sensor_id;sensor_type;location;lat;lon;timestamp;temperature;humidity
67192;HTU21D;54120;53.504;49.426;2022-07-10T00:00:39;20.95;74.98
67192;HTU21D;54120;53.504;49.426;2022-07-10T00:03:06;21.00;75.05
67192;HTU21D;54120;53.504;49.426;2022-07-10T00:05:32;20.98;75.32
67192;HTU21D;54120;53.504;49.426;2022-07-10T00:08:00;20.92;75.69
67192;HTU21D;54120;53.504;49.426;2022-07-10T00:10:27;20.92;75.79
67192;HTU21D;54120;53.504;49.426;2022-07-10T00:12:54;20.92;76.26
67192;HTU21D;54120;53.504;49.426;2022-07-10T00:15:21;20.91;76.58
67192;HTU21D;54120;53.504;49.426;2022-07-10T00:17:47;20.88;77.45
67192;HTU21D;54120;53.504;49.426;2022-07-10T00:20:14;20.85;77.39
67192;HTU21D;54120;53.504;49.426;2022-07-10T00:22:40;20.86;76.32
67192;HTU21D;54120;53.504;49.426;2022-07-10T00:25:09;20.90;76.75
67192;HTU21D;54120;53.504;49.426;2022-07-10T00:27:36;20.84;77.53
67192;HTU21D;54120;53.504;49.426;2022-07-10T00:30:03;20.80;75.89
67192;HTU21D;54120;53.504;49.426;2022-07-10T00:32:31;20.86;74.22
67192;HTU21D;54120;53.504;49.426;2022-07-10T00:34:57;20.96;75.31
67192;HTU21D;54120;53.504;49.426;2022-07-10T00:37:23;21.09;74.16
67192;HTU21D;54120;53.504;49.426;2022-07-10T00:39:49;21.22;73.56
67192;HTU21D;54120;53.504;49.426;2022-07-10T00:42:15;21.31;73.58
67192;HTU21D;54120;53.504;49.426;2022-07-10T00:44:42;21.32;73.45
67192;HTU21D;54120;53.504;49.426;2022-07-10T00:47:10;21.34;74.53
67192;HTU21D;54120;53.504;49.426;2022-07-10T00:49:38;21.23;74.96
67192;HTU21D;54120;53.504;49.426;2022-07-10T00:52:11;21.16;74.73
67192;HTU21D;54120;53.504;49.426;2022-07-10T00:54:40;21.20;74.58
67192;HTU21D;54120;53.504;49.426;2022-07-10T00:57:07;21.30;73.73
67192;HTU21D;54120;53.504;49.426;2022-07-10T00:59:34;21.17;74.73
67192;HTU21D;54120;53.504;49.426;2022-07-10T01:02:02;21.10;75.24
67192;HTU21D;54120;53.504;49.426;2022-07-10T01:04:29;21.13;76.10
67192;HTU21D;54120;53.504;49.426;2022-07-10T01:06:55;20.93;76.01
67192;HTU21D;54120;53.504;49.426;2022-07-10T01:09:22;20.91;76.08
67192;HTU21D;54120;53.504;49.426;2022-07-10T01:11:48;21.01;74.96
67192;HTU21D;54120;53.504;49.426;2022-07-10T01:14:18;21.16;74.45
67192;HTU21D;54120;53.504;49.426;2022-07-10T01:16:44;21.33;73.65
67192;HTU21D;54120;53.504;49.426;2022-07-10T01:19:11;21.43;74.23
67192;HTU21D;54120;53.504;49.426;2022-07-10T01:21:37;21.52;75.08
67192;HTU21D;54120;53.504;49.426;2022-07-10T01:24:06;21.55;75.76
67192;HTU21D;54120;53.504;49.426;2022-07-10T01:26:33;21.53;75.41
67192;HTU21D;54120;53.504;49.426;2022-07-10T01:29:03;21.53;75.56
67192;HTU21D;54120;53.504;49.426;2022-07-10T01:31:29;21.72;75.28
67192;HTU21D;54120;53.504;49.426;2022-07-10T01:33:56;22.01;73.04
67192;HTU21D;54120;53.504;49.426;2022-07-10T01:36:23;22.25;71.44
67192;HTU21D;54120;53.504;49.426;2022-07-10T01:38:53;22.38;70.95
67192;HTU21D;54120;53.504;49.426;2022-07-10T01:41:19;22.48;70.26
67192;HTU21D;54120;53.504;49.426;2022-07-10T01:43:45;22.62;69.53
67192;HTU21D;54120;53.504;49.426;2022-07-10T01:46:14;22.72;69.33
67192;HTU21D;54120;53.504;49.426;2022-07-10T01:48:41;22.82;69.11
67192;HTU21D;54120;53.504;49.426;2022-07-10T01:51:08;22.99;68.46
67192;HTU21D;54120;53.504;49.426;2022-07-10T01:53:35;23.13;68.60
67192;HTU21D;54120;53.504;49.426;2022-07-10T01:56:05;23.37;67.68
67192;HTU21D;54120;53.504;49.426;2022-07-10T01:58:32;23.45;67.62
67192;HTU21D;54120;53.504;49.426;2022-07-10T02:00:58;23.56;67.37
67192;HTU21D;54120;53.504;49.426;2022-07-10T02:03:25;23.69;67.24
67192;HTU21D;54120;53.504;49.426;2022-07-10T02:06:09;23.70;67.44
67192;HTU21D;54120;53.504;49.426;2022-07-10T02:08:35;23.69;67.92
67192;HTU21D;54120;53.504;49.426;2022-07-10T02:11:01;23.62;67.48
67192;HTU21D;54120;53.504;49.426;2022-07-10T02:13:28;23.67;68.42
67192;HTU21D;54120;53.504;49.426;2022-07-10T02:15:54;23.44;69.34
67192;HTU21D;54120;53.504;49.426;2022-07-10T02:18:21;23.23;70.10
67192;HTU21D;54120;53.504;49.426;2022-07-10T02:20:48;23.05;71.28
67192;HTU21D;54120;53.504;49.426;2022-07-10T02:23:14;23.02;71.13
67192;HTU21D;54120;53.504;49.426;2022-07-10T02:25:40;23.09;71.14
67192;HTU21D;54120;53.504;49.426;2022-07-10T02:28:08;23.03;71.93
67192;HTU21D;54120;53.504;49.426;2022-07-10T02:30:34;22.99;72.06
67192;HTU21D;54120;53.504;49.426;2022-07-10T02:33:00;22.99;72.03
67192;HTU21D;54120;53.504;49.426;2022-07-10T02:35:26;23.16;71.48
67192;HTU21D;54120;53.504;49.426;2022-07-10T02:37:52;23.42;70.62
67192;HTU21D;54120;53.504;49.426;2022-07-10T02:40:19;23.72;69.25
67192;HTU21D;54120;53.504;49.426;2022-07-10T02:42:45;24.16;67.90
67192;HTU21D;54120;53.504;49.426;2022-07-10T02:45:11;25.04;65.08
67192;HTU21D;54120;53.504;49.426;2022-07-10T02:47:37;25.56;63.20
67192;HTU21D;54120;53.504;49.426;2022-07-10T02:50:03;26.10;61.44
67192;HTU21D;54120;53.504;49.426;2022-07-10T02:52:30;26.55;60.41
67192;HTU21D;54120;53.504;49.426;2022-07-10T02:54:57;26.57;60.95
67192;HTU21D;54120;53.504;49.426;2022-07-10T02:57:24;27.46;57.56
67192;HTU21D;54120;53.504;49.426;2022-07-10T02:59:50;28.41;55.06
67192;HTU21D;54120;53.504;49.426;2022-07-10T03:02:17;29.41;51.76
67192;HTU21D;54120;53.504;49.426;2022-07-10T03:04:43;30.52;48.82
67192;HTU21D;54120;53.504;49.426;2022-07-10T03:07:09;31.72;45.25
67192;HTU21D;54120;53.504;49.426;2022-07-10T03:09:35;32.88;41.21
67192;HTU21D;54120;53.504;49.426;2022-07-10T03:12:01;33.41;40.40
67192;HTU21D;54120;53.504;49.426;2022-07-10T03:14:28;32.59;42.12
67192;HTU21D;54120;53.504;49.426;2022-07-10T03:16:54;31.58;44.21
67192;HTU21D;54120;53.504;49.426;2022-07-10T03:19:20;32.44;41.99
67192;HTU21D;54120;53.504;49.426;2022-07-10T03:21:46;33.16;40.39
67192;HTU21D;54120;53.504;49.426;2022-07-10T03:24:13;32.01;42.04
67192;HTU21D;54120;53.504;49.426;2022-07-10T03:26:39;31.92;42.58
67192;HTU21D;54120;53.504;49.426;2022-07-10T03:29:05;33.59;39.34
67192;HTU21D;54120;53.504;49.426;2022-07-10T03:31:31;34.34;37.50
67192;HTU21D;54120;53.504;49.426;2022-07-10T03:33:57;33.77;38.11
67192;HTU21D;54120;53.504;49.426;2022-07-10T03:36:23;34.69;36.47
67192;HTU21D;54120;53.504;49.426;2022-07-10T03:38:49;35.72;33.28
67192;HTU21D;54120;53.504;49.426;2022-07-10T03:41:15;35.21;33.98
67192;HTU21D;54120;53.504;49.426;2022-07-10T03:43:42;32.62;39.96
67192;HTU21D;54120;53.504;49.426;2022-07-10T03:46:08;30.83;44.45
67192;HTU21D;54120;53.504;49.426;2022-07-10T03:48:34;30.33;45.88
67192;HTU21D;54120;53.504;49.426;2022-07-10T03:51:00;30.93;44.29
67192;HTU21D;54120;53.504;49.426;2022-07-10T03:53:26;31.86;41.46
67192;HTU21D;54120;53.504;49.426;2022-07-10T03:55:53;31.87;41.30
67192;HTU21D;54120;53.504;49.426;2022-07-10T03:58:20;31.40;42.73
67192;HTU21D;54120;53.504;49.426;2022-07-10T04:00:46;30.64;44.45
67192;HTU21D;54120;53.504;49.426;2022-07-10T04:03:13;29.64;46.38
67192;HTU21D;54120;53.504;49.426;2022-07-10T04:05:39;29.57;46.81
67192;HTU21D;54120;53.504;49.426;2022-07-10T04:08:06;29.27;47.89
67192;HTU21D;54120;53.504;49.426;2022-07-10T04:10:32;29.94;45.78
67192;HTU21D;54120;53.504;49.426;2022-07-10T04:12:59;30.47;44.66
67192;HTU21D;54120;53.504;49.426;2022-07-10T04:15:25;29.60;46.65
67192;HTU21D;54120;53.504;49.426;2022-07-10T04:17:52;28.44;49.59
67192;HTU21D;54120;53.504;49.426;2022-07-10T04:20:18;28.38;49.87
67192;HTU21D;54120;53.504;49.426;2022-07-10T04:22:45;28.43;49.25
67192;HTU21D;54120;53.504;49.426;2022-07-10T04:25:12;27.69;51.13
67192;HTU21D;54120;53.504;49.426;2022-07-10T04:27:38;27.74;51.08
67192;HTU21D;54120;53.504;49.426;2022-07-10T04:30:05;27.95;51.15
67192;HTU21D;54120;53.504;49.426;2022-07-10T04:32:32;28.89;49.74
67192;HTU21D;54120;53.504;49.426;2022-07-10T04:34:58;30.01;45.96
67192;HTU21D;54120;53.504;49.426;2022-07-10T04:37:24;30.81;42.85
67192;HTU21D;54120;53.504;49.426;2022-07-10T04:39:50;31.18;42.61
67192;HTU21D;54120;53.504;49.426;2022-07-10T04:42:16;30.35;43.85
67192;HTU21D;54120;53.504;49.426;2022-07-10T04:44:43;31.38;41.92
67192;HTU21D;54120;53.504;49.426;2022-07-10T04:47:09;31.99;40.29
67192;HTU21D;54120;53.504;49.426;2022-07-10T04:49:35;32.57;40.13
67192;HTU21D;54120;53.504;49.426;2022-07-10T04:52:01;31.46;40.95
67192;HTU21D;54120;53.504;49.426;2022-07-10T04:54:27;31.20;41.77
67192;HTU21D;54120;53.504;49.426;2022-07-10T04:56:54;30.65;41.71
67192;HTU21D;54120;53.504;49.426;2022-07-10T04:59:20;29.95;44.93
67192;HTU21D;54120;53.504;49.426;2022-07-10T05:01:46;30.25;44.05
67192;HTU21D;54120;53.504;49.426;2022-07-10T05:04:12;31.07;42.15
67192;HTU21D;54120;53.504;49.426;2022-07-10T05:06:38;31.31;41.54
67192;HTU21D;54120;53.504;49.426;2022-07-10T05:09:04;32.00;39.49
67192;HTU21D;54120;53.504;49.426;2022-07-10T05:11:30;32.01;39.59
67192;HTU21D;54120;53.504;49.426;2022-07-10T05:13:58;33.72;34.09
67192;HTU21D;54120;53.504;49.426;2022-07-10T05:16:24;33.40;35.73
67192;HTU21D;54120;53.504;49.426;2022-07-10T05:18:50;33.67;35.26
67192;HTU21D;54120;53.504;49.426;2022-07-10T05:21:16;34.04;34.76
67192;HTU21D;54120;53.504;49.426;2022-07-10T05:23:42;34.40;34.11
67192;HTU21D;54120;53.504;49.426;2022-07-10T05:26:08;35.69;32.20
67192;HTU21D;54120;53.504;49.426;2022-07-10T05:28:35;36.51;28.63
67192;HTU21D;54120;53.504;49.426;2022-07-10T05:31:02;36.81;29.50
67192;HTU21D;54120;53.504;49.426;2022-07-10T05:33:28;35.11;31.56
67192;HTU21D;54120;53.504;49.426;2022-07-10T05:35:55;35.49;31.53
67192;HTU21D;54120;53.504;49.426;2022-07-10T05:38:21;34.34;33.78
67192;HTU21D;54120;53.504;49.426;2022-07-10T05:40:47;33.57;35.66
67192;HTU21D;54120;53.504;49.426;2022-07-10T05:43:14;31.58;39.93
67192;HTU21D;54120;53.504;49.426;2022-07-10T05:45:41;30.91;42.12
67192;HTU21D;54120;53.504;49.426;2022-07-10T05:48:07;31.29;40.56
67192;HTU21D;54120;53.504;49.426;2022-07-10T05:50:33;31.08;41.31
67192;HTU21D;54120;53.504;49.426;2022-07-10T05:52:59;31.94;39.58
67192;HTU21D;54120;53.504;49.426;2022-07-10T05:55:26;31.50;40.12
67192;HTU21D;54120;53.504;49.426;2022-07-10T05:57:52;30.45;42.01
67192;HTU21D;54120;53.504;49.426;2022-07-10T06:00:20;30.34;43.09
67192;HTU21D;54120;53.504;49.426;2022-07-10T06:02:46;31.68;40.91
67192;HTU21D;54120;53.504;49.426;2022-07-10T06:05:12;32.59;38.13
67192;HTU21D;54120;53.504;49.426;2022-07-10T06:07:39;32.60;38.53
67192;HTU21D;54120;53.504;49.426;2022-07-10T06:10:05;32.79;37.78
67192;HTU21D;54120;53.504;49.426;2022-07-10T06:12:32;34.22;35.05
67192;HTU21D;54120;53.504;49.426;2022-07-10T06:14:58;33.48;36.43
67192;HTU21D;54120;53.504;49.426;2022-07-10T06:17:25;32.23;38.96
67192;HTU21D;54120;53.504;49.426;2022-07-10T06:19:51;31.81;39.68
67192;HTU21D;54120;53.504;49.426;2022-07-10T06:22:17;31.99;40.24
67192;HTU21D;54120;53.504;49.426;2022-07-10T06:25:06;32.35;38.38
67192;HTU21D;54120;53.504;49.426;2022-07-10T06:27:33;31.56;40.52
67192;HTU21D;54120;53.504;49.426;2022-07-10T06:29:59;31.74;39.94
67192;HTU21D;54120;53.504;49.426;2022-07-10T06:32:26;32.48;39.38
67192;HTU21D;54120;53.504;49.426;2022-07-10T06:34:53;33.74;36.05
67192;HTU21D;54120;53.504;49.426;2022-07-10T06:37:20;33.26;38.18
67192;HTU21D;54120;53.504;49.426;2022-07-10T06:39:47;33.99;36.71
67192;HTU21D;54120;53.504;49.426;2022-07-10T06:42:14;34.71;36.07
67192;HTU21D;54120;53.504;49.426;2022-07-10T06:44:42;34.39;36.07
67192;HTU21D;54120;53.504;49.426;2022-07-10T06:47:08;34.78;35.76
67192;HTU21D;54120;53.504;49.426;2022-07-10T06:49:53;36.09;33.26
67192;HTU21D;54120;53.504;49.426;2022-07-10T06:52:20;37.52;31.24
67192;HTU21D;54120;53.504;49.426;2022-07-10T06:54:46;38.33;29.55
67192;HTU21D;54120;53.504;49.426;2022-07-10T06:57:13;38.18;30.40
67192;HTU21D;54120;53.504;49.426;2022-07-10T06:59:39;38.97;28.44
67192;HTU21D;54120;53.504;49.426;2022-07-10T07:02:05;38.36;29.30
67192;HTU21D;54120;53.504;49.426;2022-07-10T07:04:31;38.12;26.92
67192;HTU21D;54120;53.504;49.426;2022-07-10T07:06:58;39.32;25.66
67192;HTU21D;54120;53.504;49.426;2022-07-10T07:09:24;39.92;24.17
67192;HTU21D;54120;53.504;49.426;2022-07-10T07:11:50;40.42;25.16
67192;HTU21D;54120;53.504;49.426;2022-07-10T07:14:16;39.87;24.46
67192;HTU21D;54120;53.504;49.426;2022-07-10T07:16:42;37.23;29.80
67192;HTU21D;54120;53.504;49.426;2022-07-10T07:19:10;35.79;32.26
67192;HTU21D;54120;53.504;49.426;2022-07-10T07:21:37;35.37;33.02
67192;HTU21D;54120;53.504;49.426;2022-07-10T07:24:22;35.37;33.39
67192;HTU21D;54120;53.504;49.426;2022-07-10T07:26:48;36.32;31.33
67192;HTU21D;54120;53.504;49.426;2022-07-10T07:29:16;36.39;31.86
67192;HTU21D;54120;53.504;49.426;2022-07-10T07:31:43;35.95;32.63
67192;HTU21D;54120;53.504;49.426;2022-07-10T07:34:09;34.66;35.58
67192;HTU21D;54120;53.504;49.426;2022-07-10T07:36:36;34.74;35.43
67192;HTU21D;54120;53.504;49.426;2022-07-10T07:39:03;34.42;35.85
67192;HTU21D;54120;53.504;49.426;2022-07-10T07:41:29;33.95;35.85
67192;HTU21D;54120;53.504;49.426;2022-07-10T07:43:56;33.65;37.96
67192;HTU21D;54120;53.504;49.426;2022-07-10T07:46:22;33.63;36.95
67192;HTU21D;54120;53.504;49.426;2022-07-10T07:48:50;33.62;36.07
67192;HTU21D;54120;53.504;49.426;2022-07-10T07:51:16;34.45;35.78
67192;HTU21D;54120;53.504;49.426;2022-07-10T07:53:42;33.58;37.75
67192;HTU21D;54120;53.504;49.426;2022-07-10T07:56:09;33.74;36.44
67192;HTU21D;54120;53.504;49.426;2022-07-10T07:58:35;32.85;36.98
67192;HTU21D;54120;53.504;49.426;2022-07-10T08:01:01;31.96;39.36
67192;HTU21D;54120;53.504;49.426;2022-07-10T08:03:28;31.82;38.82
67192;HTU21D;54120;53.504;49.426;2022-07-10T08:05:54;31.36;38.75
67192;HTU21D;54120;53.504;49.426;2022-07-10T08:08:20;31.48;38.98
67192;HTU21D;54120;53.504;49.426;2022-07-10T08:10:46;31.66;39.10
67192;HTU21D;54120;53.504;49.426;2022-07-10T08:13:13;31.35;38.72
67192;HTU21D;54120;53.504;49.426;2022-07-10T08:15:39;31.18;38.69
67192;HTU21D;54120;53.504;49.426;2022-07-10T08:18:05;31.34;39.90
67192;HTU21D;54120;53.504;49.426;2022-07-10T08:20:33;31.29;41.23
67192;HTU21D;54120;53.504;49.426;2022-07-10T08:22:59;31.37;42.14
67192;HTU21D;54120;53.504;49.426;2022-07-10T08:25:26;32.10;40.21
67192;HTU21D;54120;53.504;49.426;2022-07-10T08:27:53;32.14;37.53
67192;HTU21D;54120;53.504;49.426;2022-07-10T08:30:19;31.66;35.91
67192;HTU21D;54120;53.504;49.426;2022-07-10T08:32:45;31.24;36.53
67192;HTU21D;54120;53.504;49.426;2022-07-10T08:35:11;31.21;36.96
67192;HTU21D;54120;53.504;49.426;2022-07-10T08:37:43;31.59;37.49
67192;HTU21D;54120;53.504;49.426;2022-07-10T08:40:12;32.08;36.42
67192;HTU21D;54120;53.504;49.426;2022-07-10T08:42:40;32.46;33.12
67192;HTU21D;54120;53.504;49.426;2022-07-10T08:45:07;32.63;33.98
67192;HTU21D;54120;53.504;49.426;2022-07-10T08:47:36;32.78;35.06
67192;HTU21D;54120;53.504;49.426;2022-07-10T08:50:04;32.25;33.56
67192;HTU21D;54120;53.504;49.426;2022-07-10T08:52:40;32.18;30.37
67192;HTU21D;54120;53.504;49.426;2022-07-10T08:55:15;31.97;32.12
67192;HTU21D;54120;53.504;49.426;2022-07-10T08:57:43;31.71;32.15
67192;HTU21D;54120;53.504;49.426;2022-07-10T09:00:09;31.78;32.15
67192;HTU21D;54120;53.504;49.426;2022-07-10T09:02:35;32.03;31.88
67192;HTU21D;54120;53.504;49.426;2022-07-10T09:05:02;32.16;32.67
67192;HTU21D;54120;53.504;49.426;2022-07-10T09:07:36;32.02;32.41
67192;HTU21D;54120;53.504;49.426;2022-07-10T09:10:06;31.65;33.34
67192;HTU21D;54120;53.504;49.426;2022-07-10T09:12:49;31.41;33.91
67192;HTU21D;54120;53.504;49.426;2022-07-10T09:15:17;31.46;35.65
67192;HTU21D;54120;53.504;49.426;2022-07-10T09:18:00;31.21;36.37
67192;HTU21D;54120;53.504;49.426;2022-07-10T09:20:37;31.22;36.11
67192;HTU21D;54120;53.504;49.426;2022-07-10T09:23:14;31.15;36.65
67192;HTU21D;54120;53.504;49.426;2022-07-10T09:25:42;31.18;33.28
67192;HTU21D;54120;53.504;49.426;2022-07-10T09:28:08;30.97;32.29
67192;HTU21D;54120;53.504;49.426;2022-07-10T09:30:38;30.90;30.04
67192;HTU21D;54120;53.504;49.426;2022-07-10T09:33:25;30.71;29.92
67192;HTU21D;54120;53.504;49.426;2022-07-10T09:46:18;30.55;32.58
67192;HTU21D;54120;53.504;49.426;2022-07-10T09:48:44;30.83;33.51
67192;HTU21D;54120;53.504;49.426;2022-07-10T09:51:11;31.00;33.90
67192;HTU21D;54120;53.504;49.426;2022-07-10T09:53:39;30.84;33.53
67192;HTU21D;54120;53.504;49.426;2022-07-10T09:56:07;30.76;34.87
67192;HTU21D;54120;53.504;49.426;2022-07-10T09:58:35;30.94;34.74
67192;HTU21D;54120;53.504;49.426;2022-07-10T10:01:03;30.98;33.35
67192;HTU21D;54120;53.504;49.426;2022-07-10T10:03:39;30.95;32.16
67192;HTU21D;54120;53.504;49.426;2022-07-10T10:06:16;30.89;31.34
67192;HTU21D;54120;53.504;49.426;2022-07-10T10:09:19;30.95;32.76
67192;HTU21D;54120;53.504;49.426;2022-07-10T10:11:40;30.59;33.41
67192;HTU21D;54120;53.504;49.426;2022-07-10T10:14:08;30.51;31.28
67192;HTU21D;54120;53.504;49.426;2022-07-10T10:16:34;30.49;29.71
67192;HTU21D;54120;53.504;49.426;2022-07-10T10:19:02;30.46;31.05
67192;HTU21D;54120;53.504;49.426;2022-07-10T10:21:47;30.74;31.22
67192;HTU21D;54120;53.504;49.426;2022-07-10T10:24:14;31.13;31.39
67192;HTU21D;54120;53.504;49.426;2022-07-10T10:26:41;31.35;31.16
67192;HTU21D;54120;53.504;49.426;2022-07-10T10:29:09;31.49;30.92
67192;HTU21D;54120;53.504;49.426;2022-07-10T10:31:36;31.65;31.56
67192;HTU21D;54120;53.504;49.426;2022-07-10T10:34:02;31.34;31.21
67192;HTU21D;54120;53.504;49.426;2022-07-10T10:39:17;30.36;34.18
67192;HTU21D;54120;53.504;49.426;2022-07-10T10:41:54;30.24;35.95
67192;HTU21D;54120;53.504;49.426;2022-07-10T10:44:22;30.22;33.30
67192;HTU21D;54120;53.504;49.426;2022-07-10T10:46:55;30.03;34.66
67192;HTU21D;54120;53.504;49.426;2022-07-10T10:49:52;29.89;33.45
67192;HTU21D;54120;53.504;49.426;2022-07-10T10:52:19;29.65;35.95
67192;HTU21D;54120;53.504;49.426;2022-07-10T10:59:59;30.61;36.27
67192;HTU21D;54120;53.504;49.426;2022-07-10T11:02:29;31.02;34.95
67192;HTU21D;54120;53.504;49.426;2022-07-10T11:08:02;31.34;35.64
67192;HTU21D;54120;53.504;49.426;2022-07-10T11:10:34;31.46;35.56
67192;HTU21D;54120;53.504;49.426;2022-07-10T11:13:14;31.69;35.28
67192;HTU21D;54120;53.504;49.426;2022-07-10T11:15:48;31.56;34.00
67192;HTU21D;54120;53.504;49.426;2022-07-10T11:18:17;31.40;31.01
67192;HTU21D;54120;53.504;49.426;2022-07-10T11:20:46;31.48;31.69
67192;HTU21D;54120;53.504;49.426;2022-07-10T11:23:48;31.83;28.77
67192;HTU21D;54120;53.504;49.426;2022-07-10T11:26:35;31.86;31.02
67192;HTU21D;54120;53.504;49.426;2022-07-10T11:29:05;32.01;31.36
67192;HTU21D;54120;53.504;49.426;2022-07-10T11:31:32;32.15;30.91
67192;HTU21D;54120;53.504;49.426;2022-07-10T11:34:10;31.98;29.48
67192;HTU21D;54120;53.504;49.426;2022-07-10T11:36:39;31.90;30.07
67192;HTU21D;54120;53.504;49.426;2022-07-10T11:39:07;31.89;29.80
67192;HTU21D;54120;53.504;49.426;2022-07-10T11:41:41;31.73;29.85
67192;HTU21D;54120;53.504;49.426;2022-07-10T11:44:12;31.52;30.96
67192;HTU21D;54120;53.504;49.426;2022-07-10T11:46:38;31.57;31.66
67192;HTU21D;54120;53.504;49.426;2022-07-10T11:49:05;31.72;32.98
67192;HTU21D;54120;53.504;49.426;2022-07-10T11:51:36;31.64;33.62
67192;HTU21D;54120;53.504;49.426;2022-07-10T11:54:04;31.49;33.97
67192;HTU21D;54120;53.504;49.426;2022-07-10T11:56:35;31.52;34.60
67192;HTU21D;54120;53.504;49.426;2022-07-10T11:59:06;31.64;33.85
67192;HTU21D;54120;53.504;49.426;2022-07-10T12:01:55;31.81;35.03
67192;HTU21D;54120;53.504;49.426;2022-07-10T12:04:22;31.93;33.00
67192;HTU21D;54120;53.504;49.426;2022-07-10T12:06:50;32.33;31.32
67192;HTU21D;54120;53.504;49.426;2022-07-10T12:09:19;32.52;31.66
67192;HTU21D;54120;53.504;49.426;2022-07-10T12:12:02;33.00;31.19
67192;HTU21D;54120;53.504;49.426;2022-07-10T12:14:29;33.41;29.76
67192;HTU21D;54120;53.504;49.426;2022-07-10T12:16:57;33.45;30.04
67192;HTU21D;54120;53.504;49.426;2022-07-10T12:19:29;33.47;29.26
67192;HTU21D;54120;53.504;49.426;2022-07-10T12:21:57;33.35;29.39
67192;HTU21D;54120;53.504;49.426;2022-07-10T12:24:25;33.41;30.21
67192;HTU21D;54120;53.504;49.426;2022-07-10T12:26:53;33.29;28.42
67192;HTU21D;54120;53.504;49.426;2022-07-10T12:29:22;33.23;28.77
67192;HTU21D;54120;53.504;49.426;2022-07-10T12:31:50;33.07;30.63
67192;HTU21D;54120;53.504;49.426;2022-07-10T12:34:17;33.30;30.19
67192;HTU21D;54120;53.504;49.426;2022-07-10T12:36:51;33.22;30.77
67192;HTU21D;54120;53.504;49.426;2022-07-10T12:39:19;33.20;30.23
67192;HTU21D;54120;53.504;49.426;2022-07-10T12:44:36;33.49;28.84
67192;HTU21D;54120;53.504;49.426;2022-07-10T12:47:04;33.21;28.86
67192;HTU21D;54120;53.504;49.426;2022-07-10T12:52:37;32.91;29.73
67192;HTU21D;54120;53.504;49.426;2022-07-10T12:55:19;32.85;29.87
67192;HTU21D;54120;53.504;49.426;2022-07-10T12:58:08;32.96;30.57
67192;HTU21D;54120;53.504;49.426;2022-07-10T13:00:36;32.94;29.00
67192;HTU21D;54120;53.504;49.426;2022-07-10T13:03:11;32.73;30.62
67192;HTU21D;54120;53.504;49.426;2022-07-10T13:05:43;32.58;30.17
67192;HTU21D;54120;53.504;49.426;2022-07-10T13:08:15;32.64;30.61
67192;HTU21D;54120;53.504;49.426;2022-07-10T13:10:52;32.96;30.74
67192;HTU21D;54120;53.504;49.426;2022-07-10T13:13:19;33.36;28.89
67192;HTU21D;54120;53.504;49.426;2022-07-10T13:15:46;33.50;30.54
67192;HTU21D;54120;53.504;49.426;2022-07-10T13:18:24;33.82;30.22
67192;HTU21D;54120;53.504;49.426;2022-07-10T13:20:55;33.74;26.94
67192;HTU21D;54120;53.504;49.426;2022-07-10T13:23:22;33.52;26.59
67192;HTU21D;54120;53.504;49.426;2022-07-10T13:25:50;33.45;26.46
67192;HTU21D;54120;53.504;49.426;2022-07-10T13:28:16;33.12;26.21
67192;HTU21D;54120;53.504;49.426;2022-07-10T13:30:43;33.22;26.71
67192;HTU21D;54120;53.504;49.426;2022-07-10T13:33:09;32.90;27.20
67192;HTU21D;54120;53.504;49.426;2022-07-10T13:35:36;32.90;27.48
67192;HTU21D;54120;53.504;49.426;2022-07-10T13:38:03;32.86;27.14
67192;HTU21D;54120;53.504;49.426;2022-07-10T13:40:31;32.98;27.75
67192;HTU21D;54120;53.504;49.426;2022-07-10T13:42:58;33.19;27.81
67192;HTU21D;54120;53.504;49.426;2022-07-10T13:45:24;33.30;27.48
67192;HTU21D;54120;53.504;49.426;2022-07-10T13:47:52;33.35;27.36
67192;HTU21D;54120;53.504;49.426;2022-07-10T13:50:21;33.31;28.61
67192;HTU21D;54120;53.504;49.426;2022-07-10T13:52:47;32.92;29.78
67192;HTU21D;54120;53.504;49.426;2022-07-10T13:55:13;32.73;30.43
67192;HTU21D;54120;53.504;49.426;2022-07-10T13:57:40;32.49;31.41
67192;HTU21D;54120;53.504;49.426;2022-07-10T14:00:06;32.39;31.42
67192;HTU21D;54120;53.504;49.426;2022-07-10T14:02:33;32.58;32.29
67192;HTU21D;54120;53.504;49.426;2022-07-10T14:04:59;32.40;31.70
67192;HTU21D;54120;53.504;49.426;2022-07-10T14:07:25;31.75;33.87
67192;HTU21D;54120;53.504;49.426;2022-07-10T14:09:52;31.71;31.29
67192;HTU21D;54120;53.504;49.426;2022-07-10T14:12:18;31.82;29.86
67192;HTU21D;54120;53.504;49.426;2022-07-10T14:14:44;31.82;29.77
67192;HTU21D;54120;53.504;49.426;2022-07-10T14:17:10;31.67;29.26
67192;HTU21D;54120;53.504;49.426;2022-07-10T14:19:38;31.53;30.81
67192;HTU21D;54120;53.504;49.426;2022-07-10T14:22:04;31.83;31.45
67192;HTU21D;54120;53.504;49.426;2022-07-10T14:24:30;31.78;31.09
67192;HTU21D;54120;53.504;49.426;2022-07-10T14:26:56;31.74;30.51
67192;HTU21D;54120;53.504;49.426;2022-07-10T14:29:23;31.84;33.08
67192;HTU21D;54120;53.504;49.426;2022-07-10T14:31:49;31.92;29.82
67192;HTU21D;54120;53.504;49.426;2022-07-10T14:34:41;31.54;34.54
67192;HTU21D;54120;53.504;49.426;2022-07-10T14:37:07;31.16;35.60
67192;HTU21D;54120;53.504;49.426;2022-07-10T14:39:33;30.98;37.23
67192;HTU21D;54120;53.504;49.426;2022-07-10T14:41:59;30.37;38.42
67192;HTU21D;54120;53.504;49.426;2022-07-10T14:44:27;30.12;38.23
67192;HTU21D;54120;53.504;49.426;2022-07-10T14:46:53;30.13;38.82
67192;HTU21D;54120;53.504;49.426;2022-07-10T14:49:19;30.17;37.79
67192;HTU21D;54120;53.504;49.426;2022-07-10T14:51:45;30.32;38.85
67192;HTU21D;54120;53.504;49.426;2022-07-10T14:54:11;30.44;38.54
67192;HTU21D;54120;53.504;49.426;2022-07-10T14:56:38;30.46;38.63
67192;HTU21D;54120;53.504;49.426;2022-07-10T14:59:04;30.25;39.53
67192;HTU21D;54120;53.504;49.426;2022-07-10T15:01:30;30.36;39.32
67192;HTU21D;54120;53.504;49.426;2022-07-10T15:03:57;30.45;39.14
67192;HTU21D;54120;53.504;49.426;2022-07-10T15:06:24;30.21;39.20
67192;HTU21D;54120;53.504;49.426;2022-07-10T15:08:50;30.19;39.95
67192;HTU21D;54120;53.504;49.426;2022-07-10T15:11:17;30.17;40.05
67192;HTU21D;54120;53.504;49.426;2022-07-10T15:13:47;30.17;40.42
67192;HTU21D;54120;53.504;49.426;2022-07-10T15:16:13;30.28;40.45
67192;HTU21D;54120;53.504;49.426;2022-07-10T15:18:40;30.11;40.72
67192;HTU21D;54120;53.504;49.426;2022-07-10T15:21:07;29.85;40.28
67192;HTU21D;54120;53.504;49.426;2022-07-10T15:23:33;29.78;40.61
67192;HTU21D;54120;53.504;49.426;2022-07-10T15:26:00;29.75;41.00
67192;HTU21D;54120;53.504;49.426;2022-07-10T15:28:26;29.62;40.56
67192;HTU21D;54120;53.504;49.426;2022-07-10T15:30:53;29.48;40.66
67192;HTU21D;54120;53.504;49.426;2022-07-10T15:33:19;29.26;41.13
67192;HTU21D;54120;53.504;49.426;2022-07-10T15:35:45;29.21;41.41